Time;durP1;ratioP1;P1;durP2;ratioP2;P2;SDS_P1;SDS_P2;PMS_P1;PMS_P2;Temp;Humidity;BMP_temperature;BMP_pressure;BME280_temperature;BME280_humidity;BME280_pressure;Samples;Min_cycle;Max_cycle;Signal;HPM_P1;HPM_P2
2022/01/03 00:03:30;;;;;;;7.93;3.70;;;;;;;9.96;72.93;98609.84;8379432;28;20049;-72
2022/01/03 00:07:34;;;;;;;7.50;3.47;;;;;;;9.98;72.83;98602.25;8383003;28;20068;-73
2022/01/03 00:11:35;;;;;;;12.60;3.42;;;;;;;9.92;72.80;98598.13;8383500;28;20040;-73
2022/01/03 00:15:36;;;;;;;6.88;3.10;;;;;;;9.86;72.83;98593.97;8338825;28;20488;-73
2022/01/03 00:19:37;;;;;;;8.43;3.80;;;;;;;9.73;73.51;98591.09;8380108;28;20087;-73
2022/01/03 00:23:40;;;;;;;8.90;3.47;;;;;;;9.70;73.52;98597.13;8388211;28;20074;-72
2022/01/03 00:28:16;;;;;;;8.80;3.90;;;;;;;9.47;74.28;98587.56;8390858;28;20055;-74
2022/01/03 00:32:17;;;;;;;7.53;3.65;;;;;;;9.41;74.70;98598.81;8364924;28;20143;-73
2022/01/03 00:36:18;;;;;;;8.50;3.33;;;;;;;9.38;74.71;98600.25;8381451;28;20056;-74
2022/01/03 00:40:21;;;;;;;9.02;3.58;;;;;;;9.37;74.71;98593.25;8367313;28;20052;-74
2022/01/03 00:44:22;;;;;;;8.93;3.78;;;;;;;9.34;75.12;98588.50;8392524;28;20056;-73
2022/01/03 00:48:24;;;;;;;9.85;3.80;;;;;;;9.51;74.14;98599.34;8384663;28;20051;-73
2022/01/03 00:52:24;;;;;;;10.65;4.32;;;;;;;9.56;74.25;98601.09;8385641;28;20063;-72
2022/01/03 00:56:37;;;;;;;9.85;3.30;;;;;;;9.55;74.14;98600.28;8373665;28;20058;-73
2022/01/03 01:00:40;;;;;;;7.35;3.47;;;;;;;9.70;73.64;98597.13;8381891;28;20055;-73
2022/01/03 01:04:44;;;;;;;6.20;3.10;;;;;;;9.71;73.61;98606.81;8390047;28;20053;-72
2022/01/03 01:08:45;;;;;;;5.70;3.08;;;;;;;9.86;73.24;98585.88;8387572;28;20072;-74
2022/01/03 01:12:46;;;;;;;10.68;3.50;;;;;;;9.80;73.63;98570.97;8369351;28;20059;-73
2022/01/03 01:16:59;;;;;;;14.57;3.60;;;;;;;9.72;73.69;98570.66;8362571;28;20130;-73
2022/01/03 01:21:00;;;;;;;12.95;3.65;;;;;;;9.69;74.03;98563.19;8386404;28;20415;-73
2022/01/03 01:29:14;;;;;;;10.57;3.80;;;;;;;9.69;73.77;98563.19;8342697;28;20470;-73
2022/01/03 01:33:16;;;;;;;7.35;3.70;;;;;;;9.66;74.16;98558.44;8378706;28;20063;-73
2022/01/03 01:37:21;;;;;;;8.75;3.22;;;;;;;9.75;73.72;98556.53;8376635;28;20048;-74
2022/01/03 01:41:22;;;;;;;11.00;3.85;;;;;;;9.69;74.16;98567.78;8360865;28;20501;-74
2022/01/03 01:45:26;;;;;;;10.52;3.40;;;;;;;9.68;73.96;98550.81;8362548;28;20098;-72
2022/01/03 01:49:26;;;;;;;11.30;4.03;;;;;;;9.70;73.87;98548.59;8368322;28;20067;-73
2022/01/03 01:53:28;;;;;;;5.82;3.33;;;;;;;9.60;74.39;98537.34;8380891;28;20128;-73
2022/01/03 01:57:40;;;;;;;6.50;3.25;;;;;;;9.61;74.20;98533.53;8384823;28;20074;-74
2022/01/03 02:01:46;;;;;;;6.97;3.40;;;;;;;9.70;73.89;98521.66;8383560;28;20071;-72
2022/01/03 02:06:03;;;;;;;6.57;3.42;;;;;;;9.52;74.68;98489.59;8385393;28;20131;-73
2022/01/03 02:10:05;;;;;;;6.53;3.33;;;;;;;9.48;74.84;98492.13;8375184;28;20041;-72
2022/01/03 02:14:07;;;;;;;7.75;3.15;;;;;;;9.45;74.52;98487.38;8385402;28;20088;-72
2022/01/03 02:18:07;;;;;;;9.15;3.15;;;;;;;9.30;75.33;98479.75;8390047;28;20049;-72
2022/01/03 02:22:10;;;;;;;8.30;2.85;;;;;;;9.36;74.88;98467.69;8389177;28;20567;-72
2022/01/03 02:26:12;;;;;;;7.05;2.97;;;;;;;9.37;74.87;98471.97;8372838;28;20055;-73
2022/01/03 02:30:15;;;;;;;6.35;2.97;;;;;;;9.36;74.87;98462.31;8396206;28;20067;-73
2022/01/03 02:34:16;;;;;;;8.23;2.97;;;;;;;9.26;75.12;98458.03;8386158;28;20503;-73
2022/01/03 02:38:17;;;;;;;5.68;2.50;;;;;;;9.14;75.37;98454.38;8396196;28;20067;-73
2022/01/03 02:42:23;;;;;;;7.47;3.40;;;;;;;9.15;75.32;98445.16;8372827;28;20052;-73
2022/01/03 02:46:24;;;;;;;6.60;3.00;;;;;;;9.10;75.75;98431.84;8389252;28;20122;-73
2022/01/03 02:50:27;;;;;;;7.07;2.33;;;;;;;9.07;75.31;98427.09;8373521;28;20048;-72
2022/01/03 02:54:27;;;;;;;8.82;3.35;;;;;;;9.01;75.72;98417.59;8393535;28;20138;-72
2022/01/03 02:58:28;;;;;;;7.00;3.08;;;;;;;9.02;75.54;98414.59;8384780;28;20048;-72
2022/01/03 03:02:29;;;;;;;5.45;2.92;;;;;;;8.92;75.99;98414.09;8390087;28;20444;-72
2022/01/03 03:06:30;;;;;;;7.10;2.80;;;;;;;8.85;76.15;98420.72;8387235;28;20099;-73
2022/01/03 03:10:31;;;;;;;9.90;3.00;;;;;;;8.87;76.11;98417.72;8395211;28;20472;-72
2022/01/03 03:14:31;;;;;;;7.65;3.30;;;;;;;8.90;76.40;98412.50;8396887;28;20048;-72
2022/01/03 03:18:32;;;;;;;10.20;3.53;;;;;;;9.00;75.63;98416.00;8370639;28;20487;-73
2022/01/03 03:22:34;;;;;;;7.60;3.17;;;;;;;9.02;77.35;98424.56;8386262;28;20131;-73
2022/01/03 03:26:34;;;;;;;9.65;3.63;;;;;;;8.83;79.74;98420.25;8393839;28;20052;-73
2022/01/03 03:30:39;;;;;;;10.77;3.45;;;;;;;8.84;80.72;98429.13;8388422;28;20397;-72
2022/01/03 03:34:40;;;;;;;6.07;3.33;;;;;;;8.72;82.86;98416.28;8390102;28;20549;-73
2022/01/03 03:38:42;;;;;;;7.60;3.50;;;;;;;8.69;84.79;98411.50;8390674;28;20139;-73
2022/01/03 03:42:43;;;;;;;8.95;3.40;;;;;;;8.51;86.16;98399.13;8388721;28;20118;-73
2022/01/03 03:46:44;;;;;;;9.13;3.70;;;;;;;8.39;86.75;98401.59;8393926;28;20041;-73
2022/01/03 03:50:46;;;;;;;6.47;3.58;;;;;;;8.29;87.68;98407.22;8383039;28;20126;-73
2022/01/03 03:54:47;;;;;;;9.27;3.80;;;;;;;8.22;88.37;98385.34;8391193;28;20091;-73
2022/01/03 03:58:48;;;;;;;7.80;3.67;;;;;;;8.24;89.34;98396.63;8393498;28;20049;-73
2022/01/03 04:02:49;;;;;;;10.13;4.05;;;;;;;8.19;90.67;98380.59;8393295;28;20037;-73
2022/01/03 04:06:50;;;;;;;11.57;3.53;;;;;;;8.18;92.03;98362.88;8394402;28;20478;-73
2022/01/03 04:10:51;;;;;;;8.48;3.75;;;;;;;8.03;93.07;98356.81;8384200;28;20044;-74
2022/01/03 04:14:51;;;;;;;6.68;3.80;;;;;;;8.01;94.49;98359.00;8392874;28;20144;-73
2022/01/03 04:18:53;;;;;;;6.28;3.83;;;;;;;7.93;94.80;98340.94;8372862;28;20044;-73
2022/01/03 04:22:54;;;;;;;9.02;3.63;;;;;;;7.87;95.15;98331.44;8386132;28;20049;-72
2022/01/03 04:26:54;;;;;;;8.50;3.70;;;;;;;7.80;95.43;98325.72;8386863;28;20510;-73
2022/01/03 04:30:55;;;;;;;9.77;4.25;;;;;;;7.74;95.79;98313.50;8384587;28;20048;-73
2022/01/03 04:34:56;;;;;;;8.18;4.10;;;;;;;7.76;95.86;98319.38;8380835;28;20057;-72
2022/01/03 04:38:57;;;;;;;11.55;5.30;;;;;;;7.72;96.30;98318.38;8389682;28;20056;-72
2022/01/03 04:42:58;;;;;;;6.65;4.32;;;;;;;7.78;96.24;98301.03;8368174;28;20460;-73
2022/01/03 04:46:58;;;;;;;11.27;4.20;;;;;;;7.93;94.99;98297.16;8376179;28;20052;-73
2022/01/03 04:50:59;;;;;;;7.13;3.85;;;;;;;7.91;94.31;98300.16;8375968;28;20132;-74
2022/01/03 04:55:01;;;;;;;10.23;4.15;;;;;;;7.95;93.66;98306.47;8387618;28;20083;-72
2022/01/03 04:59:03;;;;;;;7.90;3.90;;;;;;;8.19;90.85;98294.53;8394871;28;20040;-73
2022/01/03 05:03:04;;;;;;;9.63;2.97;;;;;;;8.28;89.58;98287.28;8377065;28;20131;-73
2022/01/03 05:07:05;;;;;;;7.20;3.33;;;;;;;8.42;88.79;98293.34;8386063;28;20040;-72
2022/01/03 05:11:05;;;;;;;9.43;3.20;;;;;;;8.47;88.10;98303.97;8393585;28;20072;-73
2022/01/03 05:15:07;;;;;;;8.13;3.70;;;;;;;8.51;88.03;98306.84;8392059;28;20135;-73
2022/01/03 05:19:07;;;;;;;8.57;3.70;;;;;;;8.50;87.67;98303.34;8389398;28;20049;-73
2022/01/03 05:23:08;;;;;;;8.57;3.55;;;;;;;8.46;88.20;98316.63;8386314;28;20079;-73
2022/01/03 05:27:09;;;;;;;6.65;2.90;;;;;;;8.51;87.73;98307.63;8390469;28;20545;-72
2022/01/03 05:31:12;;;;;;;5.65;2.60;;;;;;;8.53;87.89;98324.22;8373391;28;20056;-73
2022/01/03 05:35:14;;;;;;;3.00;1.70;;;;;;;8.51;88.15;98328.38;8384303;28;20052;-72
2022/01/03 05:39:15;;;;;;;11.13;2.22;;;;;;;8.55;87.95;98322.03;8378326;28;20076;-72
2022/01/03 05:43:15;;;;;;;4.88;1.88;;;;;;;8.61;87.74;98328.84;8393900;28;20110;-72
2022/01/03 05:47:17;;;;;;;5.20;1.65;;;;;;;8.67;87.15;98332.19;8394331;28;20080;-72
2022/01/03 05:51:17;;;;;;;3.40;1.40;;;;;;;8.70;86.76;98332.34;8393468;28;20420;-73
2022/01/03 05:55:21;;;;;;;2.70;1.33;;;;;;;8.57;87.45;98341.34;8393455;28;20056;-73
2022/01/03 05:59:22;;;;;;;3.15;1.35;;;;;;;8.71;86.47;98335.84;8385740;28;20075;-72
2022/01/03 06:03:24;;;;;;;5.50;1.65;;;;;;;8.58;87.29;98334.84;8395395;28;20515;-72
2022/01/03 06:07:25;;;;;;;3.05;1.30;;;;;;;8.58;86.79;98334.84;8382077;28;20048;-72
2022/01/03 06:11:26;;;;;;;2.15;1.13;;;;;;;8.57;86.65;98338.63;8399737;28;20052;-72
2022/01/03 06:15:26;;;;;;;2.60;1.10;;;;;;;8.67;85.63;98332.97;8399374;28;20139;-73
2022/01/03 06:19:27;;;;;;;1.73;0.85;;;;;;;8.68;84.77;98334.53;8399101;28;20048;-72
2022/01/03 06:23:28;;;;;;;3.15;1.20;;;;;;;8.69;84.78;98330.75;8394171;28;20071;-72
2022/01/03 06:27:29;;;;;;;2.03;1.10;;;;;;;8.77;83.46;98326.50;8387618;28;20049;-72
2022/01/03 06:31:40;;;;;;;2.13;1.13;;;;;;;8.71;83.60;98344.69;8398890;28;20041;-72
2022/01/03 06:35:40;;;;;;;3.70;1.15;;;;;;;8.76;82.53;98333.78;8390927;28;20048;-72
2022/01/03 06:39:41;;;;;;;3.80;1.02;;;;;;;8.80;81.98;98337.41;8399323;28;20064;-72
2022/01/03 06:43:42;;;;;;;3.58;0.95;;;;;;;8.83;81.26;98342.16;8390660;28;20044;-72
2022/01/03 06:47:47;;;;;;;1.58;0.95;;;;;;;8.85;80.32;98349.94;8395174;28;20053;-72
2022/01/03 06:51:48;;;;;;;4.88;1.30;;;;;;;8.81;80.36;98333.63;8381275;28;20091;-72
2022/01/03 06:55:48;;;;;;;6.28;1.00;;;;;;;8.89;79.47;98359.75;8386934;28;20090;-71
2022/01/03 06:59:49;;;;;;;3.88;1.58;;;;;;;8.90;79.03;98353.25;8393271;28;20555;-72
2022/01/03 07:03:50;;;;;;;2.80;1.10;;;;;;;8.98;77.91;98380.53;8398198;28;20494;-72
2022/01/03 07:07:51;;;;;;;4.40;1.00;;;;;;;9.05;76.48;98375.44;8389754;28;21219;-72
2022/01/03 07:11:51;;;;;;;9.65;1.30;;;;;;;9.02;76.91;98370.69;8389801;28;20049;-73
2022/01/03 07:20:11;;;;;;;3.20;1.00;;;;;;;9.09;76.40;98376.41;8388031;28;20139;-72
2022/01/03 07:24:12;;;;;;;2.88;1.27;;;;;;;9.07;75.87;98389.41;8387950;28;20048;-73
2022/01/03 07:28:15;;;;;;;3.42;0.88;;;;;;;9.15;75.25;98375.13;8395840;28;20139;-73
2022/01/03 07:43:44;;;;;;;3.20;0.93;;;;;;;9.22;73.34;98402.41;8372464;27;2388111;-74
2022/01/03 07:47:45;;;;;;;5.70;1.10;;;;;;;9.25;73.01;98389.06;8453021;28;20052;-73
2022/01/03 07:51:46;;;;;;;2.40;0.90;;;;;;;9.35;72.19;98401.47;8439427;28;20100;-74
2022/01/03 07:55:47;;;;;;;5.35;1.08;;;;;;;9.31;72.32;98400.50;8447738;28;20040;-73
2022/01/03 07:59:47;;;;;;;4.63;1.05;;;;;;;9.31;71.98;98400.50;8453623;28;20044;-74
2022/01/03 08:03:48;;;;;;;4.13;1.10;;;;;;;9.30;71.86;98405.13;8451378;28;20054;-74
2022/01/03 08:07:49;;;;;;;5.00;1.00;;;;;;;9.34;70.66;98394.47;8436375;28;20130;-74
2022/01/03 08:11:52;;;;;;;4.70;1.17;;;;;;;9.31;71.32;98381.63;8454088;28;20046;-74
2022/01/03 08:15:53;;;;;;;16.05;1.60;;;;;;;9.33;70.97;98398.28;8453745;28;20184;-74
2022/01/03 08:19:54;;;;;;;3.45;1.20;;;;;;;9.33;70.66;98409.06;8456758;28;20048;-74
2022/01/03 08:23:54;;;;;;;3.92;1.35;;;;;;;9.37;69.93;98399.22;8425775;28;20047;-74
2022/01/03 08:27:56;;;;;;;4.32;1.20;;;;;;;9.34;69.70;98405.25;8452160;28;20048;-74
2022/01/03 08:31:56;;;;;;;4.15;1.02;;;;;;;9.38;69.93;98419.69;8444389;28;20076;-74
2022/01/03 08:35:57;;;;;;;7.18;1.10;;;;;;;9.35;69.44;98400.66;8444532;28;20051;-74
2022/01/03 08:40:03;;;;;;;4.72;0.82;;;;;;;9.43;69.91;98419.53;8439475;28;20048;-73
2022/01/03 08:44:05;;;;;;;3.35;0.95;;;;;;;9.39;69.85;98418.56;8429405;28;20119;-74
2022/01/03 08:48:05;;;;;;;1.88;0.85;;;;;;;9.42;69.39;98417.94;8422882;28;20041;-74
2022/01/03 08:52:06;;;;;;;5.80;1.67;;;;;;;9.44;69.25;98421.13;8437194;28;20078;-74
2022/01/03 08:56:07;;;;;;;4.85;1.05;;;;;;;9.39;69.66;98429.34;8427977;28;20467;-74
2022/01/03 09:13:00;;;;;;;5.97;1.20;;;;;;;9.48;69.42;98427.44;8437128;27;2623505;-70
2022/01/03 09:17:02;;;;;;;3.45;0.82;;;;;;;9.50;69.61;98441.41;8510071;27;20396;-70
2022/01/03 09:21:03;;;;;;;3.80;0.93;;;;;;;9.43;70.18;98449.16;8512071;27;20039;-71
2022/01/03 09:29:05;;;;;;;4.78;0.90;;;;;;;9.36;70.51;98448.84;8464179;27;20112;-69
2022/01/03 09:33:06;;;;;;;2.30;0.82;;;;;;;9.34;69.61;98469.94;8481951;27;20055;-71
2022/01/03 09:37:07;;;;;;;2.80;0.93;;;;;;;9.31;70.17;98454.38;8492941;27;20070;-69
2022/01/03 09:41:10;;;;;;;1.58;0.80;;;;;;;9.32;70.33;98461.34;8458563;27;20043;-70
2022/01/03 09:45:11;;;;;;;4.03;0.88;;;;;;;9.28;71.36;98465.81;8509020;27;20051;-70
2022/01/03 09:49:13;;;;;;;4.13;0.82;;;;;;;9.21;71.54;98487.00;8487545;27;20482;-69
2022/01/03 09:53:14;;;;;;;3.55;0.85;;;;;;;9.25;72.09;98488.00;8491913;27;20046;-70
2022/01/03 09:57:19;;;;;;;6.68;1.27;;;;;;;9.23;72.54;98495.59;8490762;27;20046;-69
2022/01/03 10:01:19;;;;;;;4.68;1.15;;;;;;;9.25;72.80;98488.00;8505683;27;20043;-69
2022/01/03 10:05:21;;;;;;;3.90;1.00;;;;;;;9.19;74.06;98494.63;8485532;27;20502;-69
2022/01/03 10:09:23;;;;;;;5.03;1.20;;;;;;;9.19;74.46;98486.56;8506091;27;20047;-70
2022/01/03 10:13:24;;;;;;;6.32;1.20;;;;;;;9.21;74.29;98492.41;8491652;27;20097;-70
2022/01/03 10:17:28;;;;;;;5.55;1.25;;;;;;;9.35;74.75;98511.94;8457116;27;20101;-70
2022/01/03 10:21:35;;;;;;;5.85;1.38;;;;;;;9.24;75.91;98518.75;8449867;27;20109;-69
2022/01/03 10:25:36;;;;;;;7.22;1.55;;;;;;;9.26;75.52;98503.03;8480799;27;20467;-69
2022/01/03 10:29:37;;;;;;;5.68;1.38;;;;;;;9.17;75.77;98492.25;8492154;27;20119;-70
2022/01/03 10:33:38;;;;;;;6.75;1.38;;;;;;;9.19;75.38;98526.97;8454917;27;20163;-70
2022/01/03 10:37:39;;;;;;;12.65;1.88;;;;;;;9.19;74.65;98518.88;8477661;27;20406;-70
2022/01/03 10:41:40;;;;;;;6.18;1.10;;;;;;;9.21;74.86;98540.91;8486751;27;20047;-70
2022/01/03 10:45:41;;;;;;;7.15;1.85;;;;;;;9.21;75.01;98524.75;8487889;27;20047;-69
2022/01/03 10:49:44;;;;;;;6.65;1.63;;;;;;;9.21;75.86;98530.13;8482106;27;20183;-69
2022/01/03 10:53:45;;;;;;;7.00;1.90;;;;;;;9.24;75.35;98524.91;8463667;27;20521;-68
2022/01/03 10:57:56;;;;;;;8.93;1.90;;;;;;;9.26;76.35;98521.91;8480984;27;20088;-69
2022/01/03 11:01:57;;;;;;;7.55;2.20;;;;;;;9.33;77.04;98527.63;8487796;27;20039;-69
2022/01/03 11:06:12;;;;;;;8.50;2.00;;;;;;;9.31;76.63;98541.41;8445711;27;20536;-71
2022/01/03 11:14:39;;;;;;;7.47;1.90;;;;;;;9.15;78.55;98532.16;8451201;27;20043;-70
2022/01/03 11:18:48;;;;;;;6.88;1.92;;;;;;;9.09;79.16;98527.25;8480910;27;20052;-70
2022/01/03 11:22:49;;;;;;;8.75;2.13;;;;;;;8.99;80.05;98528.31;8429013;27;20091;-71
2022/01/03 11:26:51;;;;;;;13.90;2.55;;;;;;;8.93;80.14;98523.41;8428856;27;20055;-74
2022/01/03 11:30:53;;;;;;;10.27;2.10;;;;;;;8.88;81.15;98527.03;8446006;27;20074;-74
2022/01/03 11:34:56;;;;;;;13.57;2.67;;;;;;;8.80;83.49;98525.88;8462980;27;20133;-73
2022/01/03 11:39:04;;;;;;;7.18;2.63;;;;;;;8.61;86.71;98528.03;8462311;27;20039;-72
2022/01/03 11:43:06;;;;;;;12.18;3.20;;;;;;;8.37;87.84;98538.31;8480693;27;20050;-72
2022/01/03 11:47:08;;;;;;;15.82;2.83;;;;;;;8.26;89.67;98542.34;8458281;27;20139;-72
2022/01/03 11:51:11;;;;;;;14.75;2.85;;;;;;;8.12;90.74;98533.56;8478983;27;20051;-72
2022/01/03 11:55:13;;;;;;;8.73;2.50;;;;;;;8.05;91.83;98537.47;8460275;27;20105;-72
2022/01/03 12:07:54;;;;;;;8.75;3.03;;;;;;;7.94;93.37;98530.72;8415318;27;20059;-72
2022/01/03 12:11:54;;;;;;;;;;;;;;;7.95;93.75;98526.94;8433288;28;20048;-72
2022/01/03 12:16:04;;;;;;;17.58;3.05;;;;;;;7.92;93.84;98526.78;8453613;28;19931;-73
2022/01/03 12:20:05;;;;;;;;;;;;;;;7.95;93.72;98521.56;8442599;28;20105;-72
2022/01/03 12:24:28;;;;;;;7.60;2.38;;;;;;;7.97;93.94;98530.13;8437183;28;19923;-74
2022/01/03 12:29:08;;;;;;;8.18;2.35;;;;;;;8.09;93.86;98536.88;8447492;28;20040;-72
2022/01/03 12:33:08;;;;;;;8.03;2.73;;;;;;;8.06;93.86;98544.44;8428590;28;20505;-74
2022/01/03 12:37:18;;;;;;;9.63;2.88;;;;;;;8.06;94.26;98539.06;8443987;28;20051;-73
2022/01/03 12:41:37;;;;;;;10.32;2.67;;;;;;;8.05;94.23;98550.91;8440787;28;20036;-73
2022/01/03 12:45:44;;;;;;;10.85;2.90;;;;;;;8.04;94.51;98562.75;8450768;28;20406;-73
2022/01/03 12:49:45;;;;;;;10.70;2.45;;;;;;;8.05;94.47;98564.34;8442038;28;20043;-71
2022/01/03 12:53:49;;;;;;;17.65;3.10;;;;;;;8.04;94.48;98554.69;8437607;28;20039;-71
2022/01/03 12:57:50;;;;;;;10.07;2.83;;;;;;;8.03;94.40;98555.81;8409297;28;20124;-70
2022/01/03 13:01:51;;;;;;;12.30;3.00;;;;;;;7.97;94.41;98548.97;8413943;28;20131;-71
2022/01/03 13:06:13;;;;;;;9.88;2.67;;;;;;;7.91;94.71;98546.69;8435435;28;20055;-70
2022/01/03 13:10:17;;;;;;;14.00;2.75;;;;;;;7.92;94.79;98546.38;8434204;28;20083;-70
2022/01/03 13:14:20;;;;;;;14.20;3.25;;;;;;;7.92;94.79;98543.69;8475141;28;20123;-70
2022/01/03 13:18:21;;;;;;;14.02;3.60;;;;;;;7.92;95.01;98543.69;8415058;28;20039;-72
2022/01/03 13:22:26;;;;;;;12.68;3.30;;;;;;;7.94;94.82;98536.09;8432104;28;20095;-73
2022/01/03 13:26:29;;;;;;;17.23;3.90;;;;;;;7.97;94.53;98540.09;8444573;28;20044;-73
2022/01/03 13:30:29;;;;;;;15.20;3.20;;;;;;;7.94;94.08;98535.31;8418913;28;20093;-74
2022/01/03 13:34:31;;;;;;;17.35;3.83;;;;;;;7.90;93.57;98540.50;8425034;28;20070;-72
2022/01/03 13:38:32;;;;;;;12.52;3.70;;;;;;;7.90;93.47;98540.50;8377032;28;20533;-72
2022/01/03 13:42:47;;;;;;;14.20;3.70;;;;;;;7.91;93.30;98542.09;8430301;28;20048;-73
2022/01/03 13:51:17;;;;;;;13.00;3.17;;;;;;;8.12;87.87;98536.25;8404873;28;20048;-74
2022/01/03 13:55:25;;;;;;;12.32;2.83;;;;;;;8.11;85.97;98545.41;8440029;27;20058;-72
2022/01/03 13:59:28;;;;;;;17.63;3.00;;;;;;;8.20;84.91;98549.72;8449235;27;20543;-73
2022/01/03 14:03:29;;;;;;;16.13;2.88;;;;;;;8.47;82.38;98538.06;8484403;27;20074;-73
2022/01/03 14:07:30;;;;;;;13.02;2.08;;;;;;;8.50;82.34;98542.84;8485548;27;20041;-73
2022/01/03 14:11:31;;;;;;;30.08;5.57;;;;;;;8.46;82.21;98550.72;8454207;27;20051;-73
2022/01/03 14:15:32;;;;;;;57.45;34.05;;;;;;;8.56;80.35;98551.59;8474420;27;20040;-73
2022/01/03 14:19:35;;;;;;;13.00;4.20;;;;;;;8.71;79.14;98543.91;8488697;27;20544;-73
2022/01/03 14:23:40;;;;;;;16.02;3.67;;;;;;;8.67;78.59;98552.91;8471002;27;20588;-72
2022/01/03 14:27:47;;;;;;;5.18;1.80;;;;;;;8.74;75.10;98558.63;8489990;27;20044;-73
2022/01/03 14:31:57;;;;;;;8.77;2.55;;;;;;;8.73;74.86;98557.84;8464037;27;20056;-73
2022/01/03 14:35:58;;;;;;;6.82;2.30;;;;;;;8.66;75.94;98552.13;8479981;27;20051;-73
2022/01/03 14:40:00;;;;;;;9.73;2.60;;;;;;;8.70;74.77;98563.84;8455184;27;20048;-72
2022/01/03 14:44:03;;;;;;;15.40;3.90;;;;;;;8.59;75.47;98557.13;8473528;27;20035;-72
2022/01/03 14:48:04;;;;;;;13.10;3.00;;;;;;;8.57;74.97;98555.84;8470490;27;20150;-73
2022/01/03 14:52:08;;;;;;;12.02;3.15;;;;;;;8.54;75.38;98549.19;8455706;27;20062;-73
2022/01/03 14:56:25;;;;;;;12.95;3.63;;;;;;;8.52;74.67;98546.00;8488884;27;20263;-73
2022/01/03 15:00:26;;;;;;;17.58;4.70;;;;;;;8.52;74.20;98564.84;8465734;27;20051;-72
2022/01/03 15:04:27;;;;;;;14.13;3.78;;;;;;;8.29;76.62;98587.47;8478006;27;20067;-74
2022/01/03 15:08:28;;;;;;;18.58;4.10;;;;;;;8.05;78.78;98580.47;8457645;27;20047;-71
2022/01/03 15:12:29;;;;;;;15.95;3.53;;;;;;;7.89;80.02;98571.19;8459078;27;20490;-72
2022/01/03 15:16:30;;;;;;;13.73;2.97;;;;;;;7.82;81.19;98565.44;8440843;27;20076;-70
2022/01/03 15:20:32;;;;;;;7.57;3.03;;;;;;;7.74;80.90;98568.84;8444912;27;20042;-71
2022/01/03 15:24:33;;;;;;;7.35;2.25;;;;;;;7.75;78.83;98554.31;8488397;27;20043;-71
2022/01/03 15:28:35;;;;;;;12.27;2.40;;;;;;;7.66;79.24;98556.13;8472338;27;20058;-72
2022/01/03 15:32:36;;;;;;;15.48;2.97;;;;;;;7.84;76.95;98552.47;8456420;27;20131;-71
2022/01/03 15:36:37;;;;;;;11.15;2.63;;;;;;;7.79;77.92;98555.28;8473799;27;20039;-71
2022/01/03 15:40:37;;;;;;;12.77;3.30;;;;;;;7.77;77.85;98546.75;8474164;27;20046;-71
2022/01/03 15:44:39;;;;;;;18.48;4.50;;;;;;;7.75;77.86;98551.63;8411613;27;20043;-71
2022/01/03 15:48:40;;;;;;;15.52;3.63;;;;;;;7.79;77.25;98555.28;8471681;27;20036;-72
2022/01/03 15:52:41;;;;;;;15.50;3.42;;;;;;;7.89;75.79;98555.03;8471519;27;20386;-71
2022/01/03 15:56:42;;;;;;;13.25;4.03;;;;;;;8.00;74.67;98556.41;8480639;27;20044;-72
2022/01/03 16:00:44;;;;;;;15.18;4.22;;;;;;;8.07;73.78;98556.78;8481537;27;20039;-71
2022/01/03 16:04:44;;;;;;;17.90;4.50;;;;;;;8.23;72.71;98559.09;8481077;27;20449;-71
2022/01/03 16:08:45;;;;;;;18.85;3.67;;;;;;;8.31;71.86;98555.69;8479679;27;20122;-72
2022/01/03 16:12:46;;;;;;;14.98;3.72;;;;;;;8.17;72.34;98549.56;8470124;27;20138;-71
2022/01/03 16:16:47;;;;;;;15.70;3.83;;;;;;;8.09;72.24;98561.06;8474614;27;20040;-72
2022/01/03 16:20:47;;;;;;;13.80;3.33;;;;;;;8.03;71.39;98555.81;8450617;27;20059;-72
2022/01/03 16:24:48;;;;;;;14.98;3.38;;;;;;;8.12;70.44;98557.75;8441853;27;20050;-72
2022/01/03 16:28:49;;;;;;;15.93;3.58;;;;;;;7.98;71.17;98547.84;8466241;27;20074;-72
2022/01/03 16:32:51;;;;;;;11.43;3.25;;;;;;;7.84;71.26;98544.41;8466567;27;20134;-72
2022/01/03 16:36:51;;;;;;;18.67;4.22;;;;;;;7.78;71.81;98552.88;8491425;27;20497;-71
2022/01/03 16:40:52;;;;;;;22.58;5.07;;;;;;;7.71;71.65;98547.94;8470319;27;20134;-72
2022/01/03 16:44:55;;;;;;;22.83;5.65;;;;;;;7.68;71.84;98543.16;8486142;27;20116;-71
2022/01/03 16:48:56;;;;;;;21.13;6.07;;;;;;;7.54;72.11;98553.16;8469411;27;20043;-72
2022/01/03 16:52:58;;;;;;;21.33;6.13;;;;;;;7.41;72.69;98553.97;8465818;28;20426;-71
2022/01/03 16:56:59;;;;;;;18.75;5.78;;;;;;;7.33;72.97;98552.00;8465594;28;20165;-73
2022/01/03 17:01:00;;;;;;;17.80;5.75;;;;;;;7.33;73.00;98557.38;8462025;28;20039;-72
2022/01/03 17:05:02;;;;;;;26.58;7.32;;;;;;;7.37;72.43;98547.63;8470319;28;20519;-70
2022/01/03 17:09:02;;;;;;;29.88;10.20;;;;;;;7.43;72.03;98562.53;8466888;28;20052;-72
2022/01/03 17:13:04;;;;;;;32.20;8.57;;;;;;;7.35;72.32;98555.19;8419140;28;20138;-72
2022/01/03 17:17:05;;;;;;;18.20;5.75;;;;;;;7.28;72.81;98549.44;8482729;28;20051;-73
2022/01/03 17:21:06;;;;;;;16.45;5.35;;;;;;;7.15;73.18;98546.44;8455405;27;20043;-72
2022/01/03 17:25:07;;;;;;;15.75;4.93;;;;;;;7.10;73.60;98553.81;8480351;27;20387;-72
2022/01/03 17:29:08;;;;;;;21.65;5.55;;;;;;;7.02;73.87;98546.47;8485569;27;20118;-71
2022/01/03 17:33:10;;;;;;;24.67;6.72;;;;;;;6.99;74.38;98547.84;8476921;27;20109;-72
2022/01/03 17:37:11;;;;;;;24.13;6.30;;;;;;;6.97;74.55;98550.03;8473386;27;20140;-72
2022/01/03 17:41:12;;;;;;;17.88;6.65;;;;;;;6.92;75.01;98531.34;8485107;27;20047;-71
2022/01/03 17:45:13;;;;;;;15.73;5.32;;;;;;;6.94;75.11;98539.09;8488280;27;20047;-72
2022/01/03 17:49:14;;;;;;;26.55;9.77;;;;;;;7.00;75.16;98522.59;8485133;27;20050;-72
2022/01/03 17:53:15;;;;;;;23.48;5.55;;;;;;;7.09;75.42;98525.34;8475685;27;20055;-72
2022/01/03 17:57:16;;;;;;;19.70;6.65;;;;;;;7.23;75.06;98526.16;8467035;28;20138;-71
2022/01/03 18:01:17;;;;;;;31.77;10.07;;;;;;;7.22;75.39;98522.69;8484244;27;20095;-71
2022/01/03 18:05:17;;;;;;;22.77;7.63;;;;;;;7.29;76.16;98532.22;8474958;27;20043;-72
2022/01/03 18:09:18;;;;;;;17.70;4.72;;;;;;;7.31;79.18;98521.94;8447189;27;20055;-72
2022/01/03 18:13:20;;;;;;;16.23;4.78;;;;;;;7.11;81.12;98513.25;8466463;28;20392;-72
2022/01/03 18:17:21;;;;;;;19.10;5.30;;;;;;;7.06;82.50;98513.34;8438957;28;20052;-71
2022/01/03 18:21:22;;;;;;;18.08;4.88;;;;;;;6.99;82.81;98502.19;8474586;27;20047;-72
2022/01/03 18:25:24;;;;;;;17.67;4.03;;;;;;;6.95;82.74;98509.28;8482416;27;20414;-71
2022/01/03 18:29:25;;;;;;;18.42;3.63;;;;;;;6.92;82.31;98509.88;8482359;27;20047;-72
2022/01/03 18:33:26;;;;;;;10.30;3.40;;;;;;;6.94;81.55;98507.69;8479359;27;20088;-71
2022/01/03 18:37:27;;;;;;;11.93;3.38;;;;;;;7.06;80.21;98516.03;8486700;27;20047;-71
2022/01/03 18:41:28;;;;;;;12.60;3.92;;;;;;;6.99;79.91;98504.88;8465694;27;20051;-70
2022/01/03 18:45:29;;;;;;;17.27;4.68;;;;;;;6.84;80.17;98485.59;8489752;27;20043;-72
2022/01/03 18:49:31;;;;;;;12.98;3.92;;;;;;;6.84;79.24;98491.78;8477855;27;20405;-72
2022/01/03 18:53:32;;;;;;;19.15;4.95;;;;;;;6.66;80.08;98490.78;8464350;27;20487;-72
2022/01/03 18:57:33;;;;;;;17.95;4.38;;;;;;;6.71;79.40;98481.84;8478817;27;20054;-72
2022/01/03 19:01:35;;;;;;;17.67;4.30;;;;;;;6.75;79.43;98490.88;8474342;27;20078;-72
2022/01/03 19:05:36;;;;;;;17.42;4.65;;;;;;;6.80;79.22;98480.06;8465855;27;20148;-72
2022/01/03 19:09:39;;;;;;;14.80;3.92;;;;;;;6.87;79.08;98475.09;8474329;27;20084;-71
2022/01/03 19:13:40;;;;;;;17.10;4.70;;;;;;;6.93;78.76;98468.50;8465921;27;20082;-71
2022/01/03 19:17:40;;;;;;;14.98;4.30;;;;;;;7.03;78.50;98467.50;8480149;27;20494;-72
2022/01/03 19:21:44;;;;;;;13.25;4.68;;;;;;;7.15;77.79;98460.50;8490711;27;20460;-71
2022/01/03 19:25:45;;;;;;;15.95;4.15;;;;;;;7.21;77.59;98470.06;8481446;27;20047;-72
2022/01/03 19:29:48;;;;;;;11.68;3.65;;;;;;;7.35;76.80;98453.13;8464467;27;20235;-72
2022/01/03 19:37:58;;;;;;;15.30;4.07;;;;;;;7.28;77.11;98458.09;8495378;27;20239;-71
2022/01/03 19:41:59;;;;;;;17.13;5.78;;;;;;;7.30;77.04;98450.53;8493447;27;20043;-72
2022/01/03 19:46:00;;;;;;;19.92;5.50;;;;;;;7.25;77.44;98458.69;8472573;27;20525;-72
2022/01/03 19:50:03;;;;;;;13.88;4.10;;;;;;;7.23;77.67;98456.34;8480072;27;20051;-71
2022/01/03 19:54:04;;;;;;;15.90;4.13;;;;;;;7.22;77.44;98460.09;8485380;27;20040;-72
2022/01/03 19:58:05;;;;;;;20.58;4.35;;;;;;;7.22;77.48;98460.91;8435209;27;20035;-71
2022/01/03 20:02:10;;;;;;;16.85;5.20;;;;;;;7.12;78.21;98450.38;8470808;27;20047;-72
2022/01/03 20:06:12;;;;;;;22.15;6.45;;;;;;;7.13;78.05;98443.94;8487277;27;20058;-72
2022/01/03 20:10:14;;;;;;;22.95;6.40;;;;;;;7.09;78.24;98437.56;8487358;27;20059;-73